SBPJ

Details ICAO SBPJ (PMW)
Name Tocantins
Region Brazil
Timezone America/Araguaina (UTC-3.0)
Plans Departing 80
Arriving 70
Stats Elevation 774 ft / 236 m (AMSL)
Location -10.291524° -48.356972°
Runways 1
Magnetic Variation 21.291° W
Sunrise 2018-06-22 09:31:01 UTC / 2018-06-22 06:31:01 Local
Sunset 2018-06-22 21:02:18 UTC / 2018-06-22 18:02:18 Local
Advertisement - Login to hide

Runways

ID Width Length Bearing (true) Bearing (mag) Surface Threshold Offset Overrun Length
14 148 ft / 45 m 8,194 ft / 2,497 m 124.06° 145.35° Asphalt 0 ft / 0 m 0 ft / 0 m
32 148 ft / 45 m 8,194 ft / 2,497 m 304.06° 325.35° Asphalt 0 ft / 0 m 0 ft / 0 m

Map

Weather


0- 5 10 15 20 25 30 35+ Temperature / ° C

Clouds and Precipitation
Forecast for 2018-06-23 00:00 UTC. Updated an hour ago

Ground ~20,000 ft ~40,000 ft Winds

METAR

Not found

TAF

TAF SBPJ 221400Z 2218/2306 11005KT CAVOK TX33/2218Z TN21/2305Z BECMG 2300/2302 10005KT RMK PDE

Frequencies

Tower 119.00 MHz PALMAS RDO
Approach 119.00 MHz PALMAS APP
Tower 118.00 MHz PALMAS TWR
Warning: Do not use this data for real-world aviation or navigation. No guarantee of current accuracy is given.